sensor_id;sensor_type;location;lat;lon;timestamp;temperature;humidity
29539;DHT22;16482;51.046;4.498;2023-06-10T00:01:12;27.20;40.10
29539;DHT22;16482;51.046;4.498;2023-06-10T00:03:43;27.20;40.10
29539;DHT22;16482;51.046;4.498;2023-06-10T00:06:12;27.20;40.10
29539;DHT22;16482;51.046;4.498;2023-06-10T00:08:47;27.20;40.20
29539;DHT22;16482;51.046;4.498;2023-06-10T00:11:13;27.20;40.10
29539;DHT22;16482;51.046;4.498;2023-06-10T00:13:45;27.10;40.10
29539;DHT22;16482;51.046;4.498;2023-06-10T00:16:11;27.20;40.20
29539;DHT22;16482;51.046;4.498;2023-06-10T00:18:47;27.10;40.20
29539;DHT22;16482;51.046;4.498;2023-06-10T00:21:17;27.10;40.20
29539;DHT22;16482;51.046;4.498;2023-06-10T00:23:44;27.20;40.20
29539;DHT22;16482;51.046;4.498;2023-06-10T00:26:13;27.20;40.10
29539;DHT22;16482;51.046;4.498;2023-06-10T00:28:43;27.20;40.20
29539;DHT22;16482;51.046;4.498;2023-06-10T00:31:13;27.10;40.20
29539;DHT22;16482;51.046;4.498;2023-06-10T00:33:43;27.10;40.20
29539;DHT22;16482;51.046;4.498;2023-06-10T00:36:16;27.10;40.20
29539;DHT22;16482;51.046;4.498;2023-06-10T00:38:42;27.20;40.30
29539;DHT22;16482;51.046;4.498;2023-06-10T00:41:16;27.20;40.30
29539;DHT22;16482;51.046;4.498;2023-06-10T00:43:44;27.10;40.30
29539;DHT22;16482;51.046;4.498;2023-06-10T00:46:14;27.10;40.30
29539;DHT22;16482;51.046;4.498;2023-06-10T00:48:41;27.10;40.20
29539;DHT22;16482;51.046;4.498;2023-06-10T00:51:16;27.10;40.40
29539;DHT22;16482;51.046;4.498;2023-06-10T00:53:45;27.10;40.30
29539;DHT22;16482;51.046;4.498;2023-06-10T00:56:13;27.10;40.50
29539;DHT22;16482;51.046;4.498;2023-06-10T00:58:43;27.10;40.50
29539;DHT22;16482;51.046;4.498;2023-06-10T01:01:16;27.10;40.50
29539;DHT22;16482;51.046;4.498;2023-06-10T01:03:44;27.10;40.40
29539;DHT22;16482;51.046;4.498;2023-06-10T01:06:29;27.10;40.40
29539;DHT22;16482;51.046;4.498;2023-06-10T01:11:48;27.10;40.50
29539;DHT22;16482;51.046;4.498;2023-06-10T01:14:18;27.00;40.40
29539;DHT22;16482;51.046;4.498;2023-06-10T01:16:44;27.10;40.50
29539;DHT22;16482;51.046;4.498;2023-06-10T01:19:11;27.00;40.50
29539;DHT22;16482;51.046;4.498;2023-06-10T01:21:39;27.10;40.60
29539;DHT22;16482;51.046;4.498;2023-06-10T01:24:06;27.10;40.60
29539;DHT22;16482;51.046;4.498;2023-06-10T01:26:37;27.10;40.60
29539;DHT22;16482;51.046;4.498;2023-06-10T01:29:17;27.10;40.80
29539;DHT22;16482;51.046;4.498;2023-06-10T01:32:12;27.10;40.70
29539;DHT22;16482;51.046;4.498;2023-06-10T01:34:42;27.10;40.60
29539;DHT22;16482;51.046;4.498;2023-06-10T01:37:13;27.10;40.70
29539;DHT22;16482;51.046;4.498;2023-06-10T01:39:40;27.00;40.70
29539;DHT22;16482;51.046;4.498;2023-06-10T01:42:06;27.10;40.70
29539;DHT22;16482;51.046;4.498;2023-06-10T01:44:34;27.10;40.80
29539;DHT22;16482;51.046;4.498;2023-06-10T01:47:02;27.10;40.80
29539;DHT22;16482;51.046;4.498;2023-06-10T01:49:31;27.10;40.80
29539;DHT22;16482;51.046;4.498;2023-06-10T01:52:02;27.00;40.80
29539;DHT22;16482;51.046;4.498;2023-06-10T01:54:33;27.10;40.90
29539;DHT22;16482;51.046;4.498;2023-06-10T01:57:03;27.00;40.90
29539;DHT22;16482;51.046;4.498;2023-06-10T01:59:34;27.00;40.90
29539;DHT22;16482;51.046;4.498;2023-06-10T02:02:04;27.10;41.00
29539;DHT22;16482;51.046;4.498;2023-06-10T02:04:38;27.10;41.10
29539;DHT22;16482;51.046;4.498;2023-06-10T02:07:05;27.00;41.00
29539;DHT22;16482;51.046;4.498;2023-06-10T02:09:34;27.00;41.00
29539;DHT22;16482;51.046;4.498;2023-06-10T02:12:04;27.00;41.10
29539;DHT22;16482;51.046;4.498;2023-06-10T02:14:35;27.00;41.00
29539;DHT22;16482;51.046;4.498;2023-06-10T02:17:04;27.00;41.10
29539;DHT22;16482;51.046;4.498;2023-06-10T02:19:34;27.00;41.20
29539;DHT22;16482;51.046;4.498;2023-06-10T02:22:05;27.00;41.20
29539;DHT22;16482;51.046;4.498;2023-06-10T02:24:38;27.00;41.20
29539;DHT22;16482;51.046;4.498;2023-06-10T02:27:05;27.00;41.20
29539;DHT22;16482;51.046;4.498;2023-06-10T02:29:34;27.10;41.30
29539;DHT22;16482;51.046;4.498;2023-06-10T02:32:11;27.00;41.20
29539;DHT22;16482;51.046;4.498;2023-06-10T02:34:37;27.00;41.30
29539;DHT22;16482;51.046;4.498;2023-06-10T02:37:05;27.00;41.30
29539;DHT22;16482;51.046;4.498;2023-06-10T02:39:38;27.00;41.30
29539;DHT22;16482;51.046;4.498;2023-06-10T02:42:06;27.00;41.30
29539;DHT22;16482;51.046;4.498;2023-06-10T02:44:37;27.00;41.40
29539;DHT22;16482;51.046;4.498;2023-06-10T02:50:25;27.00;41.30
29539;DHT22;16482;51.046;4.498;2023-06-10T02:53:11;26.90;41.40
29539;DHT22;16482;51.046;4.498;2023-06-10T02:55:37;27.00;41.40
29539;DHT22;16482;51.046;4.498;2023-06-10T02:58:03;27.00;41.50
29539;DHT22;16482;51.046;4.498;2023-06-10T03:00:29;27.00;41.50
29539;DHT22;16482;51.046;4.498;2023-06-10T03:02:55;27.00;41.50
29539;DHT22;16482;51.046;4.498;2023-06-10T03:05:25;27.00;41.50
29539;DHT22;16482;51.046;4.498;2023-06-10T03:08:10;27.00;41.50
29539;DHT22;16482;51.046;4.498;2023-06-10T03:10:35;27.00;41.50
29539;DHT22;16482;51.046;4.498;2023-06-10T03:13:03;27.00;41.60
29539;DHT22;16482;51.046;4.498;2023-06-10T03:15:29;27.00;41.50
29539;DHT22;16482;51.046;4.498;2023-06-10T03:17:59;27.00;41.60
29539;DHT22;16482;51.046;4.498;2023-06-10T03:20:25;27.00;41.60
29539;DHT22;16482;51.046;4.498;2023-06-10T03:22:56;27.00;41.60
29539;DHT22;16482;51.046;4.498;2023-06-10T03:25:25;27.00;41.70
29539;DHT22;16482;51.046;4.498;2023-06-10T03:27:56;27.00;41.60
29539;DHT22;16482;51.046;4.498;2023-06-10T03:30:25;27.00;41.70
29539;DHT22;16482;51.046;4.498;2023-06-10T03:33:09;27.00;41.60
29539;DHT22;16482;51.046;4.498;2023-06-10T03:35:35;27.00;41.60
29539;DHT22;16482;51.046;4.498;2023-06-10T03:38:03;27.00;41.70
29539;DHT22;16482;51.046;4.498;2023-06-10T03:40:29;26.90;41.80
29539;DHT22;16482;51.046;4.498;2023-06-10T03:42:58;26.90;41.80
29539;DHT22;16482;51.046;4.498;2023-06-10T03:45:24;26.90;41.80
29539;DHT22;16482;51.046;4.498;2023-06-10T03:47:58;26.90;41.80
29539;DHT22;16482;51.046;4.498;2023-06-10T03:50:24;27.00;41.80
29539;DHT22;16482;51.046;4.498;2023-06-10T03:53:11;26.90;41.80
29539;DHT22;16482;51.046;4.498;2023-06-10T03:55:37;27.00;41.90
29539;DHT22;16482;51.046;4.498;2023-06-10T03:58:03;26.90;41.90
29539;DHT22;16482;51.046;4.498;2023-06-10T04:00:29;26.90;42.00
29539;DHT22;16482;51.046;4.498;2023-06-10T04:02:55;26.90;42.00
29539;DHT22;16482;51.046;4.498;2023-06-10T04:05:26;26.90;42.00
29539;DHT22;16482;51.046;4.498;2023-06-10T04:07:54;26.90;41.90
29539;DHT22;16482;51.046;4.498;2023-06-10T04:10:30;26.90;42.00
29539;DHT22;16482;51.046;4.498;2023-06-10T04:12:55;26.90;41.90
29539;DHT22;16482;51.046;4.498;2023-06-10T04:15:29;26.90;42.00
29539;DHT22;16482;51.046;4.498;2023-06-10T04:17:58;26.90;42.00
29539;DHT22;16482;51.046;4.498;2023-06-10T04:20:24;26.90;42.00
29539;DHT22;16482;51.046;4.498;2023-06-10T04:22:57;26.90;42.10
29539;DHT22;16482;51.046;4.498;2023-06-10T04:25:26;26.90;42.10
29539;DHT22;16482;51.046;4.498;2023-06-10T04:27:52;26.90;42.10
29539;DHT22;16482;51.046;4.498;2023-06-10T04:30:21;26.90;42.20
29539;DHT22;16482;51.046;4.498;2023-06-10T04:32:54;26.90;42.10
29539;DHT22;16482;51.046;4.498;2023-06-10T04:35:21;27.00;42.10
29539;DHT22;16482;51.046;4.498;2023-06-10T04:37:56;26.90;42.10
29539;DHT22;16482;51.046;4.498;2023-06-10T04:40:24;27.00;42.20
29539;DHT22;16482;51.046;4.498;2023-06-10T04:42:55;26.90;42.10
29539;DHT22;16482;51.046;4.498;2023-06-10T04:45:25;26.90;42.20
29539;DHT22;16482;51.046;4.498;2023-06-10T04:47:54;26.90;42.30
29539;DHT22;16482;51.046;4.498;2023-06-10T04:50:24;26.90;42.30
29539;DHT22;16482;51.046;4.498;2023-06-10T04:52:57;26.90;42.30
29539;DHT22;16482;51.046;4.498;2023-06-10T04:55:25;26.90;42.40
29539;DHT22;16482;51.046;4.498;2023-06-10T04:57:51;26.90;42.40
29539;DHT22;16482;51.046;4.498;2023-06-10T05:00:25;26.90;42.40
29539;DHT22;16482;51.046;4.498;2023-06-10T05:02:54;26.90;42.40
29539;DHT22;16482;51.046;4.498;2023-06-10T05:05:29;26.90;42.50
29539;DHT22;16482;51.046;4.498;2023-06-10T05:07:55;26.90;42.40
29539;DHT22;16482;51.046;4.498;2023-06-10T05:10:39;26.90;42.40
29539;DHT22;16482;51.046;4.498;2023-06-10T05:13:05;26.90;42.50
29539;DHT22;16482;51.046;4.498;2023-06-10T05:15:31;26.90;42.60
29539;DHT22;16482;51.046;4.498;2023-06-10T05:17:57;26.90;42.70
29539;DHT22;16482;51.046;4.498;2023-06-10T05:20:24;26.90;42.50
29539;DHT22;16482;51.046;4.498;2023-06-10T05:22:54;26.90;42.60
29539;DHT22;16482;51.046;4.498;2023-06-10T05:25:30;26.90;42.60
29539;DHT22;16482;51.046;4.498;2023-06-10T05:27:56;26.80;42.50
29539;DHT22;16482;51.046;4.498;2023-06-10T05:30:24;26.90;42.60
29539;DHT22;16482;51.046;4.498;2023-06-10T05:32:53;26.90;42.60
29539;DHT22;16482;51.046;4.498;2023-06-10T05:35:25;26.90;42.60
29539;DHT22;16482;51.046;4.498;2023-06-10T05:37:54;26.90;42.60
29539;DHT22;16482;51.046;4.498;2023-06-10T05:40:25;26.90;42.70
29539;DHT22;16482;51.046;4.498;2023-06-10T05:43:00;26.90;42.70
29539;DHT22;16482;51.046;4.498;2023-06-10T05:45:27;26.90;42.70
29539;DHT22;16482;51.046;4.498;2023-06-10T05:47:53;26.90;42.70
29539;DHT22;16482;51.046;4.498;2023-06-10T05:50:28;26.90;42.70
29539;DHT22;16482;51.046;4.498;2023-06-10T05:52:54;26.90;42.70
29539;DHT22;16482;51.046;4.498;2023-06-10T05:55:39;26.90;42.70
29539;DHT22;16482;51.046;4.498;2023-06-10T05:58:05;26.90;42.60
29539;DHT22;16482;51.046;4.498;2023-06-10T06:00:31;26.90;42.70
29539;DHT22;16482;51.046;4.498;2023-06-10T06:02:57;26.90;42.70
29539;DHT22;16482;51.046;4.498;2023-06-10T06:08:46;26.90;42.50
29539;DHT22;16482;51.046;4.498;2023-06-10T06:11:12;26.90;42.70
29539;DHT22;16482;51.046;4.498;2023-06-10T06:13:45;26.90;42.70
29539;DHT22;16482;51.046;4.498;2023-06-10T06:16:15;26.90;42.70
29539;DHT22;16482;51.046;4.498;2023-06-10T06:18:49;26.90;42.70
29539;DHT22;16482;51.046;4.498;2023-06-10T06:21:15;26.90;42.60
29539;DHT22;16482;51.046;4.498;2023-06-10T06:23:46;26.90;42.70
29539;DHT22;16482;51.046;4.498;2023-06-10T06:26:14;26.90;42.70
29539;DHT22;16482;51.046;4.498;2023-06-10T06:28:47;26.90;42.70
29539;DHT22;16482;51.046;4.498;2023-06-10T06:31:16;26.90;42.70
29539;DHT22;16482;51.046;4.498;2023-06-10T06:33:44;26.90;42.60
29539;DHT22;16482;51.046;4.498;2023-06-10T06:36:11;26.90;42.60
29539;DHT22;16482;51.046;4.498;2023-06-10T06:38:47;26.90;42.60
29539;DHT22;16482;51.046;4.498;2023-06-10T06:41:16;27.00;42.60
29539;DHT22;16482;51.046;4.498;2023-06-10T06:46:45;27.00;42.70
29539;DHT22;16482;51.046;4.498;2023-06-10T06:49:11;27.20;42.60
29539;DHT22;16482;51.046;4.498;2023-06-10T06:51:37;27.30;42.00
29539;DHT22;16482;51.046;4.498;2023-06-10T06:54:03;27.60;41.60
29539;DHT22;16482;51.046;4.498;2023-06-10T06:56:31;27.80;41.00
29539;DHT22;16482;51.046;4.498;2023-06-10T06:58:57;28.00;40.70
29539;DHT22;16482;51.046;4.498;2023-06-10T07:01:22;28.10;40.40
29539;DHT22;16482;51.046;4.498;2023-06-10T07:03:48;28.30;40.10
29539;DHT22;16482;51.046;4.498;2023-06-10T07:06:14;28.50;39.80
29539;DHT22;16482;51.046;4.498;2023-06-10T07:08:49;28.60;39.50
29539;DHT22;16482;51.046;4.498;2023-06-10T07:11:16;28.80;39.20
29539;DHT22;16482;51.046;4.498;2023-06-10T07:13:44;28.80;39.00
29539;DHT22;16482;51.046;4.498;2023-06-10T07:16:14;28.90;39.00
29539;DHT22;16482;51.046;4.498;2023-06-10T07:18:46;28.90;39.00
29539;DHT22;16482;51.046;4.498;2023-06-10T07:21:14;28.90;39.20
29539;DHT22;16482;51.046;4.498;2023-06-10T07:23:46;28.90;39.00
29539;DHT22;16482;51.046;4.498;2023-06-10T07:26:14;28.90;39.00
29539;DHT22;16482;51.046;4.498;2023-06-10T07:28:42;28.90;39.20
29539;DHT22;16482;51.046;4.498;2023-06-10T07:31:22;28.80;39.20
29539;DHT22;16482;51.046;4.498;2023-06-10T07:33:51;28.90;39.10
29539;DHT22;16482;51.046;4.498;2023-06-10T07:36:18;28.80;39.10
29539;DHT22;16482;51.046;4.498;2023-06-10T07:38:47;28.90;39.10
29539;DHT22;16482;51.046;4.498;2023-06-10T07:41:15;28.80;39.10
29539;DHT22;16482;51.046;4.498;2023-06-10T07:43:43;28.80;39.20
29539;DHT22;16482;51.046;4.498;2023-06-10T07:46:17;28.80;39.30
29539;DHT22;16482;51.046;4.498;2023-06-10T07:48:45;28.80;39.40
29539;DHT22;16482;51.046;4.498;2023-06-10T07:51:15;28.80;39.50
29539;DHT22;16482;51.046;4.498;2023-06-10T07:53:50;28.70;39.70
29539;DHT22;16482;51.046;4.498;2023-06-10T07:56:15;28.60;39.90
29539;DHT22;16482;51.046;4.498;2023-06-10T07:58:46;28.60;40.20
29539;DHT22;16482;51.046;4.498;2023-06-10T08:01:15;28.50;40.40
29539;DHT22;16482;51.046;4.498;2023-06-10T08:03:48;28.50;40.60
29539;DHT22;16482;51.046;4.498;2023-06-10T08:06:17;28.40;40.60
29539;DHT22;16482;51.046;4.498;2023-06-10T08:08:45;28.30;40.60
29539;DHT22;16482;51.046;4.498;2023-06-10T08:11:14;28.30;40.80
29539;DHT22;16482;51.046;4.498;2023-06-10T08:13:43;28.30;41.00
29539;DHT22;16482;51.046;4.498;2023-06-10T08:16:14;28.20;41.10
29539;DHT22;16482;51.046;4.498;2023-06-10T08:18:52;28.20;41.10
29539;DHT22;16482;51.046;4.498;2023-06-10T08:21:18;28.20;41.20
29539;DHT22;16482;51.046;4.498;2023-06-10T08:23:44;28.20;41.20
29539;DHT22;16482;51.046;4.498;2023-06-10T08:26:15;28.10;41.20
29539;DHT22;16482;51.046;4.498;2023-06-10T08:28:44;28.10;41.20
29539;DHT22;16482;51.046;4.498;2023-06-10T08:31:17;28.10;41.30
29539;DHT22;16482;51.046;4.498;2023-06-10T08:33:43;28.10;41.20
29539;DHT22;16482;51.046;4.498;2023-06-10T08:36:12;28.10;41.10
29539;DHT22;16482;51.046;4.498;2023-06-10T08:38:50;28.10;41.10
29539;DHT22;16482;51.046;4.498;2023-06-10T08:41:17;28.20;41.30
29539;DHT22;16482;51.046;4.498;2023-06-10T08:44:03;28.10;41.40
29539;DHT22;16482;51.046;4.498;2023-06-10T08:46:31;28.20;41.20
29539;DHT22;16482;51.046;4.498;2023-06-10T08:49:03;28.20;41.40
29539;DHT22;16482;51.046;4.498;2023-06-10T08:51:31;28.20;41.60
29539;DHT22;16482;51.046;4.498;2023-06-10T08:54:04;28.20;41.80
29539;DHT22;16482;51.046;4.498;2023-06-10T09:08:34;28.20;41.50
29539;DHT22;16482;51.046;4.498;2023-06-10T09:11:01;28.80;41.00
29539;DHT22;16482;51.046;4.498;2023-06-10T09:13:27;28.60;41.30
29539;DHT22;16482;51.046;4.498;2023-06-10T09:15:52;28.50;41.30
29539;DHT22;16482;51.046;4.498;2023-06-10T09:18:22;28.50;41.30
29539;DHT22;16482;51.046;4.498;2023-06-10T09:20:48;28.40;41.60
29539;DHT22;16482;51.046;4.498;2023-06-10T09:23:15;28.40;41.20
29539;DHT22;16482;51.046;4.498;2023-06-10T09:25:41;28.30;41.20
29539;DHT22;16482;51.046;4.498;2023-06-10T09:28:14;28.30;41.30
29539;DHT22;16482;51.046;4.498;2023-06-10T09:30:41;28.30;41.20
29539;DHT22;16482;51.046;4.498;2023-06-10T09:33:14;28.30;41.20
29539;DHT22;16482;51.046;4.498;2023-06-10T09:35:48;28.30;41.20
29539;DHT22;16482;51.046;4.498;2023-06-10T09:38:21;28.20;41.20
29539;DHT22;16482;51.046;4.498;2023-06-10T09:40:51;28.20;41.10
29539;DHT22;16482;51.046;4.498;2023-06-10T09:43:18;28.20;41.20
29539;DHT22;16482;51.046;4.498;2023-06-10T09:45:44;28.20;41.20
29539;DHT22;16482;51.046;4.498;2023-06-10T09:48:13;28.20;41.10
29539;DHT22;16482;51.046;4.498;2023-06-10T09:50:43;28.20;41.20
29539;DHT22;16482;51.046;4.498;2023-06-10T09:53:10;28.30;41.20
29539;DHT22;16482;51.046;4.498;2023-06-10T09:55:40;28.20;41.10
29539;DHT22;16482;51.046;4.498;2023-06-10T09:58:07;28.20;41.10
29539;DHT22;16482;51.046;4.498;2023-06-10T10:00:34;28.20;41.10
29539;DHT22;16482;51.046;4.498;2023-06-10T10:03:07;28.20;41.10
29539;DHT22;16482;51.046;4.498;2023-06-10T10:05:36;28.20;41.70
29539;DHT22;16482;51.046;4.498;2023-06-10T10:08:04;28.10;41.00
29539;DHT22;16482;51.046;4.498;2023-06-10T10:10:36;28.20;41.10
29539;DHT22;16482;51.046;4.498;2023-06-10T10:13:05;28.20;41.10
29539;DHT22;16482;51.046;4.498;2023-06-10T10:15:34;28.10;41.00
29539;DHT22;16482;51.046;4.498;2023-06-10T10:18:09;28.10;41.00
29539;DHT22;16482;51.046;4.498;2023-06-10T10:20:46;28.10;41.00
29539;DHT22;16482;51.046;4.498;2023-06-10T10:23:14;28.10;40.90
29539;DHT22;16482;51.046;4.498;2023-06-10T10:25:42;28.10;41.00
29539;DHT22;16482;51.046;4.498;2023-06-10T10:28:10;28.10;40.90
29539;DHT22;16482;51.046;4.498;2023-06-10T10:30:41;28.10;40.80
29539;DHT22;16482;51.046;4.498;2023-06-10T10:33:19;28.10;40.70
29539;DHT22;16482;51.046;4.498;2023-06-10T10:35:46;28.10;40.70
29539;DHT22;16482;51.046;4.498;2023-06-10T10:38:12;28.10;40.90
29539;DHT22;16482;51.046;4.498;2023-06-10T10:40:38;28.10;40.70
29539;DHT22;16482;51.046;4.498;2023-06-10T10:43:05;28.10;40.70
29539;DHT22;16482;51.046;4.498;2023-06-10T10:45:34;28.10;40.70
29539;DHT22;16482;51.046;4.498;2023-06-10T10:48:08;28.10;40.60
29539;DHT22;16482;51.046;4.498;2023-06-10T10:50:38;28.10;40.60
29539;DHT22;16482;51.046;4.498;2023-06-10T10:53:06;28.10;40.60
29539;DHT22;16482;51.046;4.498;2023-06-10T10:55:35;28.10;40.50
29539;DHT22;16482;51.046;4.498;2023-06-10T10:58:07;28.00;40.50
29539;DHT22;16482;51.046;4.498;2023-06-10T11:00:43;28.10;40.40
29539;DHT22;16482;51.046;4.498;2023-06-10T11:03:14;28.10;40.40
29539;DHT22;16482;51.046;4.498;2023-06-10T11:05:45;28.10;40.40
29539;DHT22;16482;51.046;4.498;2023-06-10T11:10:58;28.00;40.30
29539;DHT22;16482;51.046;4.498;2023-06-10T11:13:26;28.00;40.20
29539;DHT22;16482;51.046;4.498;2023-06-10T11:15:53;28.00;40.20
29539;DHT22;16482;51.046;4.498;2023-06-10T11:18:24;28.00;40.20
29539;DHT22;16482;51.046;4.498;2023-06-10T11:31:32;28.00;39.80
29539;DHT22;16482;51.046;4.498;2023-06-10T11:34:00;28.00;39.60
29539;DHT22;16482;51.046;4.498;2023-06-10T11:36:27;28.00;39.30
29539;DHT22;16482;51.046;4.498;2023-06-10T11:39:01;28.00;39.40
29539;DHT22;16482;51.046;4.498;2023-06-10T11:41:28;28.10;39.60
29539;DHT22;16482;51.046;4.498;2023-06-10T11:43:57;28.10;39.50
29539;DHT22;16482;51.046;4.498;2023-06-10T11:46:26;28.10;39.50
29539;DHT22;16482;51.046;4.498;2023-06-10T11:48:58;28.00;39.50
29539;DHT22;16482;51.046;4.498;2023-06-10T11:51:33;28.00;39.40
29539;DHT22;16482;51.046;4.498;2023-06-10T11:54:00;28.00;39.40
29539;DHT22;16482;51.046;4.498;2023-06-10T11:56:27;28.00;39.30
29539;DHT22;16482;51.046;4.498;2023-06-10T11:59:01;28.10;39.50
29539;DHT22;16482;51.046;4.498;2023-06-10T12:01:32;28.10;39.40
29539;DHT22;16482;51.046;4.498;2023-06-10T12:04:06;28.10;39.20
29539;DHT22;16482;51.046;4.498;2023-06-10T12:06:45;28.10;39.20
29539;DHT22;16482;51.046;4.498;2023-06-10T12:09:27;28.10;39.20
29539;DHT22;16482;51.046;4.498;2023-06-10T12:11:58;28.10;39.10
29539;DHT22;16482;51.046;4.498;2023-06-10T12:17:18;28.10;38.90
29539;DHT22;16482;51.046;4.498;2023-06-10T12:19:47;28.10;39.00
29539;DHT22;16482;51.046;4.498;2023-06-10T12:22:13;28.10;38.90
29539;DHT22;16482;51.046;4.498;2023-06-10T12:24:58;28.10;38.80
29539;DHT22;16482;51.046;4.498;2023-06-10T12:27:29;28.10;38.70
29539;DHT22;16482;51.046;4.498;2023-06-10T12:29:56;28.20;38.70
29539;DHT22;16482;51.046;4.498;2023-06-10T12:32:41;28.20;38.60
29539;DHT22;16482;51.046;4.498;2023-06-10T12:35:08;28.10;38.40
29539;DHT22;16482;51.046;4.498;2023-06-10T12:37:34;28.10;38.40
29539;DHT22;16482;51.046;4.498;2023-06-10T12:40:04;28.10;38.30
29539;DHT22;16482;51.046;4.498;2023-06-10T12:42:39;28.10;38.30
29539;DHT22;16482;51.046;4.498;2023-06-10T12:45:06;28.20;38.20
29539;DHT22;16482;51.046;4.498;2023-06-10T12:47:35;28.10;38.10
29539;DHT22;16482;51.046;4.498;2023-06-10T12:50:04;28.20;38.10
29539;DHT22;16482;51.046;4.498;2023-06-10T12:52:30;28.20;38.10
29539;DHT22;16482;51.046;4.498;2023-06-10T12:54:56;28.20;37.90
29539;DHT22;16482;51.046;4.498;2023-06-10T12:57:22;28.20;38.00
29539;DHT22;16482;51.046;4.498;2023-06-10T12:59:49;28.20;38.00
29539;DHT22;16482;51.046;4.498;2023-06-10T13:02:26;28.20;38.00
29539;DHT22;16482;51.046;4.498;2023-06-10T13:04:51;28.20;38.00
29539;DHT22;16482;51.046;4.498;2023-06-10T13:07:18;28.20;38.00
29539;DHT22;16482;51.046;4.498;2023-06-10T13:09:44;28.10;38.00
29539;DHT22;16482;51.046;4.498;2023-06-10T13:12:17;28.10;37.90
29539;DHT22;16482;51.046;4.498;2023-06-10T13:14:45;28.20;37.90
29539;DHT22;16482;51.046;4.498;2023-06-10T13:17:19;28.10;37.90
29539;DHT22;16482;51.046;4.498;2023-06-10T13:19:45;28.10;37.90
29539;DHT22;16482;51.046;4.498;2023-06-10T13:22:19;28.10;37.90
29539;DHT22;16482;51.046;4.498;2023-06-10T13:24:46;28.10;37.70
29539;DHT22;16482;51.046;4.498;2023-06-10T13:27:18;28.10;37.80
29539;DHT22;16482;51.046;4.498;2023-06-10T13:29:46;28.10;37.70
29539;DHT22;16482;51.046;4.498;2023-06-10T13:32:17;28.10;37.70
29539;DHT22;16482;51.046;4.498;2023-06-10T13:34:45;28.10;37.50
29539;DHT22;16482;51.046;4.498;2023-06-10T13:37:14;28.10;37.50
29539;DHT22;16482;51.046;4.498;2023-06-10T13:39:45;28.10;37.50
29539;DHT22;16482;51.046;4.498;2023-06-10T13:42:16;28.10;37.50
29539;DHT22;16482;51.046;4.498;2023-06-10T13:44:45;28.10;37.50
29539;DHT22;16482;51.046;4.498;2023-06-10T13:47:15;28.10;37.40
29539;DHT22;16482;51.046;4.498;2023-06-10T13:49:44;28.00;37.10
29539;DHT22;16482;51.046;4.498;2023-06-10T13:52:15;28.10;37.30
29539;DHT22;16482;51.046;4.498;2023-06-10T13:54:44;28.00;37.20
29539;DHT22;16482;51.046;4.498;2023-06-10T13:57:13;28.00;37.20
29539;DHT22;16482;51.046;4.498;2023-06-10T13:59:47;28.00;37.30
29539;DHT22;16482;51.046;4.498;2023-06-10T14:02:15;28.10;37.20
29539;DHT22;16482;51.046;4.498;2023-06-10T14:04:48;28.10;37.20
29539;DHT22;16482;51.046;4.498;2023-06-10T14:07:14;28.10;37.20
29539;DHT22;16482;51.046;4.498;2023-06-10T14:09:44;28.00;37.10
29539;DHT22;16482;51.046;4.498;2023-06-10T14:12:17;28.00;36.90
29539;DHT22;16482;51.046;4.498;2023-06-10T14:14:46;28.10;37.00
29539;DHT22;16482;51.046;4.498;2023-06-10T14:17:15;28.10;36.90
29539;DHT22;16482;51.046;4.498;2023-06-10T14:19:49;28.10;36.80
29539;DHT22;16482;51.046;4.498;2023-06-10T14:22:15;28.10;36.80
29539;DHT22;16482;51.046;4.498;2023-06-10T14:24:50;28.10;36.80
29539;DHT22;16482;51.046;4.498;2023-06-10T14:27:16;28.10;36.80
29539;DHT22;16482;51.046;4.498;2023-06-10T14:29:45;28.10;36.70
29539;DHT22;16482;51.046;4.498;2023-06-10T14:32:14;28.10;36.60
29539;DHT22;16482;51.046;4.498;2023-06-10T14:34:45;28.10;36.60
29539;DHT22;16482;51.046;4.498;2023-06-10T14:37:21;28.10;36.50
29539;DHT22;16482;51.046;4.498;2023-06-10T14:39:47;28.10;36.40
29539;DHT22;16482;51.046;4.498;2023-06-10T14:42:15;28.10;36.90
29539;DHT22;16482;51.046;4.498;2023-06-10T14:44:49;28.10;36.20
29539;DHT22;16482;51.046;4.498;2023-06-10T14:47:15;28.10;36.20
29539;DHT22;16482;51.046;4.498;2023-06-10T14:49:49;28.10;36.20
29539;DHT22;16482;51.046;4.498;2023-06-10T14:52:18;28.10;36.00
29539;DHT22;16482;51.046;4.498;2023-06-10T14:54:44;28.10;35.90
29539;DHT22;16482;51.046;4.498;2023-06-10T14:57:17;28.10;35.90
29539;DHT22;16482;51.046;4.498;2023-06-10T14:59:46;28.10;35.70
29539;DHT22;16482;51.046;4.498;2023-06-10T15:02:14;28.20;35.80
29539;DHT22;16482;51.046;4.498;2023-06-10T15:04:49;28.20;35.70
29539;DHT22;16482;51.046;4.498;2023-06-10T15:07:15;28.10;35.50
29539;DHT22;16482;51.046;4.498;2023-06-10T15:09:48;28.10;35.70
29539;DHT22;16482;51.046;4.498;2023-06-10T15:12:14;28.10;35.60
29539;DHT22;16482;51.046;4.498;2023-06-10T15:14:45;28.10;35.60
29539;DHT22;16482;51.046;4.498;2023-06-10T15:17:20;28.10;35.50
29539;DHT22;16482;51.046;4.498;2023-06-10T15:19:46;28.10;35.40
29539;DHT22;16482;51.046;4.498;2023-06-10T15:22:17;28.10;35.40
29539;DHT22;16482;51.046;4.498;2023-06-10T15:24:45;28.10;35.40
29539;DHT22;16482;51.046;4.498;2023-06-10T15:27:14;28.20;35.40
29539;DHT22;16482;51.046;4.498;2023-06-10T15:29:48;28.10;35.30
29539;DHT22;16482;51.046;4.498;2023-06-10T15:32:16;28.10;35.40
29539;DHT22;16482;51.046;4.498;2023-06-10T15:34:49;28.10;35.30
29539;DHT22;16482;51.046;4.498;2023-06-10T15:37:18;28.20;35.30
29539;DHT22;16482;51.046;4.498;2023-06-10T15:39:47;28.10;35.30
29539;DHT22;16482;51.046;4.498;2023-06-10T15:42:15;28.10;35.10
29539;DHT22;16482;51.046;4.498;2023-06-10T15:44:49;28.10;35.10
29539;DHT22;16482;51.046;4.498;2023-06-10T15:47:18;28.20;35.20
29539;DHT22;16482;51.046;4.498;2023-06-10T15:49:46;28.10;35.00
29539;DHT22;16482;51.046;4.498;2023-06-10T15:52:17;28.10;35.10
29539;DHT22;16482;51.046;4.498;2023-06-10T15:54:46;28.10;35.00
29539;DHT22;16482;51.046;4.498;2023-06-10T15:57:21;28.10;35.00
29539;DHT22;16482;51.046;4.498;2023-06-10T15:59:47;28.10;35.00
29539;DHT22;16482;51.046;4.498;2023-06-10T16:02:15;28.10;35.00
29539;DHT22;16482;51.046;4.498;2023-06-10T16:04:49;28.10;35.00
29539;DHT22;16482;51.046;4.498;2023-06-10T16:07:17;28.10;35.00
29539;DHT22;16482;51.046;4.498;2023-06-10T16:09:50;28.00;35.00
29539;DHT22;16482;51.046;4.498;2023-06-10T16:12:16;28.10;35.00
29539;DHT22;16482;51.046;4.498;2023-06-10T16:14:45;28.00;34.90
29539;DHT22;16482;51.046;4.498;2023-06-10T16:17:18;28.00;34.90
29539;DHT22;16482;51.046;4.498;2023-06-10T16:19:47;28.00;34.70
29539;DHT22;16482;51.046;4.498;2023-06-10T16:22:22;28.00;34.60
29539;DHT22;16482;51.046;4.498;2023-06-10T16:24:48;28.00;34.50
29539;DHT22;16482;51.046;4.498;2023-06-10T16:27:21;28.00;34.50